createdAt,value
2022-08-31T00:00:00.637Z,18.4
2022-08-31T00:03:00.617Z,18.4
2022-08-31T00:06:00.663Z,18.4
2022-08-31T00:09:00.702Z,18.4
2022-08-31T00:12:00.668Z,18.4
2022-08-31T00:15:00.601Z,18.4
2022-08-31T00:18:00.622Z,18.4
2022-08-31T00:21:00.593Z,17.9
2022-08-31T00:24:00.642Z,17.9
2022-08-31T00:27:00.632Z,17.9
2022-08-31T00:30:00.614Z,17.9
2022-08-31T00:33:00.602Z,17.9
2022-08-31T00:36:00.632Z,17.9
2022-08-31T00:39:00.627Z,17.9
2022-08-31T00:42:00.613Z,17.9
2022-08-31T00:45:00.640Z,17.9
2022-08-31T00:48:00.617Z,17.9
2022-08-31T00:51:00.617Z,17.9
2022-08-31T00:54:00.656Z,17.9
2022-08-31T00:57:00.693Z,17.9
2022-08-31T01:00:00.684Z,17.9
2022-08-31T01:03:00.636Z,17.9
2022-08-31T01:06:00.612Z,17.9
2022-08-31T01:09:00.694Z,17.4
2022-08-31T01:12:00.688Z,17.4
2022-08-31T01:15:00.658Z,17.4
2022-08-31T01:18:00.628Z,17.4
2022-08-31T01:21:00.610Z,17.4
2022-08-31T01:24:00.645Z,17.4
2022-08-31T01:27:00.587Z,17.4
2022-08-31T01:30:00.673Z,17.4
2022-08-31T01:33:00.600Z,17.4
2022-08-31T01:36:00.663Z,17.4
2022-08-31T01:39:00.582Z,17.4
2022-08-31T01:42:00.690Z,17.4
2022-08-31T01:45:00.611Z,17.4
2022-08-31T01:48:00.636Z,17.4
2022-08-31T01:51:00.596Z,17.4
2022-08-31T01:54:00.620Z,17.4
2022-08-31T01:57:00.631Z,17.4
2022-08-31T02:00:00.634Z,17.4
2022-08-31T02:03:00.585Z,16.9
2022-08-31T02:09:00.681Z,16.9
2022-08-31T02:12:00.661Z,16.9
2022-08-31T02:15:00.611Z,16.9
2022-08-31T02:18:00.664Z,16.8
2022-08-31T02:21:00.669Z,16.8
2022-08-31T02:24:00.626Z,16.8
2022-08-31T02:27:00.718Z,16.8
2022-08-31T02:30:00.677Z,16.8
2022-08-31T02:33:00.589Z,16.8
2022-08-31T02:36:00.629Z,16.8
2022-08-31T02:39:00.800Z,16.8
2022-08-31T02:42:00.697Z,16.8
2022-08-31T02:45:00.653Z,16.8
2022-08-31T02:48:00.651Z,16.8
2022-08-31T02:51:00.640Z,16.8
2022-08-31T02:54:00.653Z,16.8
2022-08-31T02:57:00.650Z,16.8
2022-08-31T03:00:00.645Z,16.8
2022-08-31T03:03:00.695Z,16.8
2022-08-31T03:06:00.611Z,16.8
2022-08-31T03:09:00.676Z,16.8
2022-08-31T03:12:00.640Z,16.5
2022-08-31T03:15:00.614Z,16.5
2022-08-31T03:18:00.613Z,16.3
2022-08-31T03:21:00.610Z,16.3
2022-08-31T03:24:00.619Z,16.3
2022-08-31T03:27:00.687Z,16.3
2022-08-31T03:30:00.651Z,16.3
2022-08-31T03:33:03.063Z,16.3
2022-08-31T03:36:00.619Z,16.3
2022-08-31T03:39:00.614Z,16.3
2022-08-31T03:42:00.618Z,16.3
2022-08-31T03:45:00.627Z,16.3
2022-08-31T03:48:00.651Z,16.3
2022-08-31T03:51:00.626Z,15.8
2022-08-31T03:54:00.619Z,15.8
2022-08-31T03:57:00.628Z,15.8
2022-08-31T04:00:01.455Z,15.8
2022-08-31T04:03:00.766Z,15.8
2022-08-31T04:06:00.638Z,15.8
2022-08-31T04:09:00.611Z,15.8
2022-08-31T04:12:00.627Z,15.8
2022-08-31T04:15:00.615Z,15.8
2022-08-31T04:18:00.621Z,15.8
2022-08-31T04:21:00.735Z,15.8
2022-08-31T04:24:00.663Z,15.8
2022-08-31T04:27:00.625Z,15.8
2022-08-31T04:30:00.664Z,15.8
2022-08-31T04:33:00.668Z,15.8
2022-08-31T04:36:00.744Z,15.8
2022-08-31T04:39:00.679Z,15.8
2022-08-31T04:42:00.628Z,15.8
2022-08-31T04:45:00.861Z,15.7
2022-08-31T04:48:00.650Z,15.7
2022-08-31T04:51:00.676Z,15.7
2022-08-31T04:54:00.689Z,15.7
2022-08-31T04:57:00.670Z,15.7
2022-08-31T05:00:00.683Z,15.7
2022-08-31T05:03:00.762Z,15.7
2022-08-31T05:06:00.751Z,15.7
2022-08-31T05:09:00.700Z,15.7
2022-08-31T05:12:00.611Z,15.7
2022-08-31T05:15:00.621Z,15.7
2022-08-31T05:18:00.638Z,15.7
2022-08-31T05:21:00.681Z,15.7
2022-08-31T05:24:00.719Z,15.7
2022-08-31T05:27:00.652Z,15.7
2022-08-31T05:30:00.853Z,15.7
2022-08-31T05:33:00.640Z,15.7
2022-08-31T05:36:00.664Z,15.7
2022-08-31T05:39:01.648Z,15.7
2022-08-31T05:42:00.667Z,15.7
2022-08-31T05:45:00.663Z,15.7
2022-08-31T05:48:00.644Z,15.7
2022-08-31T05:51:00.663Z,15.7
2022-08-31T05:54:00.654Z,15.7
2022-08-31T05:57:01.598Z,15.7
2022-08-31T06:00:00.688Z,15.6
2022-08-31T06:03:00.674Z,15.6
2022-08-31T06:06:00.677Z,15.6
2022-08-31T06:09:00.628Z,15.7
2022-08-31T06:12:00.695Z,15.7
2022-08-31T06:15:00.641Z,15.7
2022-08-31T06:18:00.707Z,15.7
2022-08-31T06:21:00.641Z,15.7
2022-08-31T06:24:00.689Z,15.7
2022-08-31T06:27:00.631Z,15.7
2022-08-31T06:30:00.682Z,15.7
2022-08-31T06:33:00.637Z,15.7
2022-08-31T06:36:00.659Z,15.7
2022-08-31T06:39:00.759Z,16
2022-08-31T06:42:00.670Z,16
2022-08-31T06:45:00.694Z,16
2022-08-31T06:48:00.665Z,16
2022-08-31T06:51:00.699Z,16
2022-08-31T06:54:28.871Z,16
2022-08-31T06:57:00.650Z,16
2022-08-31T07:00:00.694Z,16.2
2022-08-31T07:03:00.709Z,16.2
2022-08-31T07:06:00.688Z,16.2
2022-08-31T07:09:00.687Z,16.2
2022-08-31T07:12:00.681Z,16.2
2022-08-31T07:15:00.705Z,16.5
2022-08-31T07:18:00.671Z,16.5
2022-08-31T07:21:00.617Z,16.5
2022-08-31T07:24:00.635Z,16.5
2022-08-31T07:27:00.638Z,16.5
2022-08-31T07:30:00.744Z,16.5
2022-08-31T07:33:00.667Z,17
2022-08-31T07:36:00.740Z,17
2022-08-31T07:39:00.664Z,17
2022-08-31T07:42:00.692Z,17
2022-08-31T07:45:01.708Z,17
2022-08-31T07:48:00.717Z,17
2022-08-31T07:51:00.666Z,17.4
2022-08-31T07:54:00.650Z,17.5
2022-08-31T07:57:00.665Z,17.5
2022-08-31T08:00:00.710Z,17.5
2022-08-31T08:03:00.722Z,17.5
2022-08-31T08:06:01.758Z,17.5
2022-08-31T08:09:24.295Z,17.5
2022-08-31T08:12:01.408Z,17.5
2022-08-31T08:15:00.605Z,18
2022-08-31T08:18:00.738Z,18
2022-08-31T08:21:00.642Z,18
2022-08-31T08:24:00.701Z,18
2022-08-31T08:27:00.667Z,18
2022-08-31T08:30:00.732Z,18
2022-08-31T08:33:00.674Z,18
2022-08-31T08:36:00.696Z,18.5
2022-08-31T08:39:00.694Z,18.5
2022-08-31T08:42:00.693Z,18.5
2022-08-31T08:45:00.651Z,18.9
2022-08-31T08:48:00.661Z,18.9
2022-08-31T08:51:00.660Z,19.1
2022-08-31T08:54:00.666Z,19.1
2022-08-31T08:57:01.797Z,19.1
2022-08-31T09:00:00.672Z,19.1
2022-08-31T09:03:00.721Z,19.1
2022-08-31T09:06:00.676Z,19.1
2022-08-31T09:09:00.626Z,19.1
2022-08-31T09:12:00.645Z,19.6
2022-08-31T09:15:00.649Z,19.6
2022-08-31T09:18:00.654Z,19.6
2022-08-31T09:21:00.640Z,19.6
2022-08-31T09:24:00.699Z,19.6
2022-08-31T09:27:00.629Z,19.6
2022-08-31T09:30:00.743Z,20.1
2022-08-31T09:33:00.641Z,20.1
2022-08-31T09:36:00.705Z,20.1
2022-08-31T09:39:00.712Z,20.1
2022-08-31T09:42:00.634Z,20.2
2022-08-31T09:45:00.662Z,20.2
2022-08-31T09:48:00.653Z,20.3
2022-08-31T09:51:00.653Z,20.3
2022-08-31T09:54:00.655Z,20.3
2022-08-31T09:57:00.713Z,20.3
2022-08-31T10:00:00.672Z,20.3
2022-08-31T10:03:06.603Z,20.3
2022-08-31T10:06:00.687Z,20.3
2022-08-31T10:09:00.703Z,20.3
2022-08-31T10:12:00.793Z,20.3
2022-08-31T10:15:00.644Z,20.3
2022-08-31T10:18:00.710Z,20.3
2022-08-31T10:21:00.630Z,20.3
2022-08-31T10:24:00.675Z,20.3
2022-08-31T10:27:00.767Z,20.3
2022-08-31T10:30:00.744Z,20.3
2022-08-31T10:33:00.635Z,20.3
2022-08-31T10:36:00.724Z,20.6
2022-08-31T10:39:00.634Z,20.6
2022-08-31T10:42:00.703Z,20.6
2022-08-31T10:45:00.667Z,20.6
2022-08-31T10:48:00.702Z,20.6
2022-08-31T10:51:00.698Z,20.6
2022-08-31T10:54:00.644Z,20.9
2022-08-31T10:57:00.938Z,20.9
2022-08-31T11:00:00.754Z,20.9
2022-08-31T11:03:00.667Z,20.9
2022-08-31T11:06:00.692Z,20.9
2022-08-31T11:09:00.652Z,20.9
2022-08-31T11:12:00.683Z,20.9
2022-08-31T11:15:00.719Z,20.9
2022-08-31T11:18:00.676Z,20.9
2022-08-31T11:21:00.668Z,20.9
2022-08-31T11:24:00.663Z,20.9
2022-08-31T11:27:00.675Z,21.4
2022-08-31T11:30:00.691Z,21.4
2022-08-31T11:33:00.674Z,21.3
2022-08-31T11:36:06.560Z,21.3
2022-08-31T11:39:00.698Z,21.3
2022-08-31T11:42:00.693Z,21.3
2022-08-31T11:45:00.673Z,21.3
2022-08-31T11:48:00.695Z,21.3
2022-08-31T11:51:00.626Z,21.3
2022-08-31T11:54:00.678Z,21.3
2022-08-31T11:57:00.666Z,21.4
2022-08-31T12:00:00.737Z,21.4
2022-08-31T12:03:00.751Z,21.4
2022-08-31T12:06:00.646Z,21.4
2022-08-31T12:09:00.693Z,21.4
2022-08-31T12:12:00.681Z,21.4
2022-08-31T12:15:00.742Z,21.4
2022-08-31T12:18:00.627Z,21.4
2022-08-31T12:21:00.730Z,21.4
2022-08-31T12:24:00.679Z,21.6
2022-08-31T12:27:00.762Z,21.6
2022-08-31T12:30:00.785Z,21.6
2022-08-31T12:33:00.655Z,21.6
2022-08-31T12:36:00.669Z,21.6
2022-08-31T12:39:00.677Z,21.6
2022-08-31T12:42:00.708Z,21.6
2022-08-31T12:45:00.643Z,21.6
2022-08-31T12:48:00.721Z,21.6
2022-08-31T12:51:00.655Z,21.6
2022-08-31T12:54:00.680Z,21.6
2022-08-31T12:57:00.620Z,21.6
2022-08-31T13:00:02.340Z,21.6
2022-08-31T13:03:00.895Z,21.6
2022-08-31T13:06:00.696Z,21.6
2022-08-31T13:09:00.649Z,21.6
2022-08-31T13:12:00.655Z,21.6
2022-08-31T13:15:00.643Z,21.6
2022-08-31T13:18:00.627Z,21.6
2022-08-31T13:21:00.670Z,21.6
2022-08-31T13:24:00.697Z,21.8
2022-08-31T13:27:00.645Z,21.8
2022-08-31T13:30:00.787Z,21.8
2022-08-31T13:33:00.697Z,21.8
2022-08-31T13:36:00.689Z,21.8
2022-08-31T13:39:00.746Z,21.8
2022-08-31T13:42:00.672Z,21.8
2022-08-31T13:45:00.678Z,21.8
2022-08-31T13:48:00.725Z,21.9
2022-08-31T13:51:00.709Z,21.9
2022-08-31T13:54:00.865Z,21.9
2022-08-31T13:57:00.780Z,21.9
2022-08-31T14:00:00.852Z,21.9
2022-08-31T14:03:00.751Z,21.9
2022-08-31T14:06:00.713Z,21.9
2022-08-31T14:09:00.670Z,21.9
2022-08-31T14:12:00.711Z,21.9
2022-08-31T14:15:00.640Z,21.9
2022-08-31T14:18:26.998Z,21.9
2022-08-31T14:21:22.238Z,22.1
2022-08-31T14:24:00.749Z,22.1
2022-08-31T14:27:00.678Z,22.1
2022-08-31T14:30:00.843Z,22.1
2022-08-31T14:33:00.660Z,22.1
2022-08-31T14:36:00.741Z,22.1
2022-08-31T14:39:00.655Z,22.1
2022-08-31T14:42:00.652Z,22.1
2022-08-31T14:45:00.665Z,22.1
2022-08-31T14:48:00.733Z,22.4
2022-08-31T14:51:00.638Z,22.4
2022-08-31T14:54:00.638Z,22.4
2022-08-31T14:57:00.691Z,22.4
2022-08-31T15:00:00.783Z,22.4
2022-08-31T15:03:00.670Z,22.4
2022-08-31T15:06:00.642Z,22.4
2022-08-31T15:09:00.703Z,22.4
2022-08-31T15:12:00.673Z,22.4
2022-08-31T15:15:00.766Z,22.4
2022-08-31T15:18:00.765Z,22.4
2022-08-31T15:21:00.790Z,22.4
2022-08-31T15:24:00.695Z,22.4
2022-08-31T15:27:00.676Z,22.4
2022-08-31T15:30:00.721Z,22.3
2022-08-31T15:33:00.733Z,22.3
2022-08-31T15:36:00.683Z,22.3
2022-08-31T15:39:00.680Z,22.3
2022-08-31T15:42:00.705Z,22.3
2022-08-31T15:45:00.678Z,22.3
2022-08-31T15:48:00.754Z,22.3
2022-08-31T15:51:00.933Z,22.3
2022-08-31T15:54:22.047Z,22.3
2022-08-31T15:57:00.648Z,22.3
2022-08-31T16:00:00.746Z,22.3
2022-08-31T16:03:00.710Z,22.3
2022-08-31T16:06:00.790Z,22.3
2022-08-31T16:09:00.703Z,22.3
2022-08-31T16:12:00.668Z,22.3
2022-08-31T16:15:00.691Z,22.2
2022-08-31T16:18:00.666Z,22.2
2022-08-31T16:21:00.617Z,22.2
2022-08-31T16:24:00.707Z,22.2
2022-08-31T16:27:00.656Z,22.2
2022-08-31T16:30:00.701Z,22.2
2022-08-31T16:33:00.709Z,22.2
2022-08-31T16:36:00.782Z,22.2
2022-08-31T16:39:00.768Z,22.2
2022-08-31T16:42:00.668Z,22.2
2022-08-31T16:45:02.878Z,22.2
2022-08-31T16:48:00.665Z,22.2
2022-08-31T16:51:00.733Z,22.2
2022-08-31T16:54:00.698Z,22.2
2022-08-31T16:57:00.647Z,22.2
2022-08-31T17:00:00.798Z,21.8
2022-08-31T17:03:00.651Z,21.8
2022-08-31T17:06:01.056Z,21.8
2022-08-31T17:09:00.669Z,21.8
2022-08-31T17:12:00.834Z,21.8
2022-08-31T17:15:00.637Z,21.8
2022-08-31T17:18:00.679Z,21.8
2022-08-31T17:21:00.646Z,21.8
2022-08-31T17:24:00.670Z,21.8
2022-08-31T17:27:00.681Z,21.8
2022-08-31T17:30:00.712Z,21.5
2022-08-31T17:33:00.682Z,21.5
2022-08-31T17:36:00.640Z,21.5
2022-08-31T17:39:00.698Z,21.5
2022-08-31T17:42:00.703Z,21.5
2022-08-31T17:45:00.708Z,21.5
2022-08-31T17:48:00.628Z,21.5
2022-08-31T17:51:00.703Z,21.5
2022-08-31T17:54:00.702Z,21.5
2022-08-31T17:57:00.671Z,21.5
2022-08-31T18:00:00.791Z,21.1
2022-08-31T18:03:00.691Z,21
2022-08-31T18:06:00.760Z,21
2022-08-31T18:09:00.703Z,21
2022-08-31T18:12:00.670Z,21
2022-08-31T18:15:00.690Z,21
2022-08-31T18:18:00.748Z,21
2022-08-31T18:21:00.606Z,21
2022-08-31T18:24:00.675Z,21
2022-08-31T18:27:00.614Z,21
2022-08-31T18:30:00.641Z,20.6
2022-08-31T18:33:00.572Z,20.6
2022-08-31T18:36:00.637Z,20.6
2022-08-31T18:39:00.592Z,20.6
2022-08-31T18:42:00.645Z,20.6
2022-08-31T18:45:00.585Z,20.6
2022-08-31T18:48:25.683Z,20.6
2022-08-31T18:51:00.659Z,20.6
2022-08-31T18:54:00.689Z,20.6
2022-08-31T18:57:00.602Z,20.2
2022-08-31T19:00:00.666Z,20.2
2022-08-31T19:03:00.638Z,20.1
2022-08-31T19:06:00.661Z,20.1
2022-08-31T19:09:00.659Z,20.1
2022-08-31T19:12:00.651Z,20.1
2022-08-31T19:15:00.713Z,20.1
2022-08-31T19:18:00.669Z,20.1
2022-08-31T19:21:00.639Z,20.1
2022-08-31T19:24:00.747Z,20.1
2022-08-31T19:27:00.654Z,19.6
2022-08-31T19:30:00.673Z,19.6
2022-08-31T19:33:00.602Z,19.6
2022-08-31T19:36:04.757Z,19.6
2022-08-31T19:39:00.614Z,19.6
2022-08-31T19:42:00.659Z,19.6
2022-08-31T19:45:24.317Z,19.1
2022-08-31T19:48:01.723Z,19.1
2022-08-31T19:51:00.613Z,18.9
2022-08-31T19:54:00.661Z,18.9
2022-08-31T19:57:00.649Z,18.9
2022-08-31T20:00:00.704Z,18.9
2022-08-31T20:03:00.714Z,18.6
2022-08-31T20:06:00.624Z,18.6
2022-08-31T20:09:00.626Z,18.6
2022-08-31T20:12:00.672Z,18.6
2022-08-31T20:15:00.633Z,18.6
2022-08-31T20:18:00.682Z,18.6
2022-08-31T20:21:00.689Z,18.1
2022-08-31T20:24:00.673Z,18.1
2022-08-31T20:27:00.606Z,18.1
2022-08-31T20:30:00.680Z,18.1
2022-08-31T20:33:00.630Z,18.1
2022-08-31T20:36:00.634Z,18.1
2022-08-31T20:39:00.581Z,18.1
2022-08-31T20:42:00.753Z,17.6
2022-08-31T20:45:00.748Z,17.6
2022-08-31T20:48:00.648Z,17.5
2022-08-31T20:51:00.592Z,17.5
2022-08-31T20:54:00.614Z,17.5
2022-08-31T20:57:00.624Z,17.5
2022-08-31T21:00:00.672Z,17.1
2022-08-31T21:03:00.749Z,17.1
2022-08-31T21:06:00.641Z,17.1
2022-08-31T21:09:00.647Z,17.1
2022-08-31T21:12:00.649Z,17.1
2022-08-31T21:15:00.611Z,17.1
2022-08-31T21:18:00.700Z,17.1
2022-08-31T21:21:01.463Z,17.1
2022-08-31T21:24:00.646Z,17.1
2022-08-31T21:27:00.701Z,17.1
2022-08-31T21:30:00.667Z,17.1
2022-08-31T21:33:00.652Z,16.6
2022-08-31T21:36:00.774Z,16.6
2022-08-31T21:39:00.707Z,16.6
2022-08-31T21:42:00.643Z,16.6
2022-08-31T21:45:00.636Z,16.5
2022-08-31T21:48:00.697Z,16.5
2022-08-31T21:51:00.631Z,16.5
2022-08-31T21:54:00.619Z,16.5
2022-08-31T21:57:00.672Z,16.5
2022-08-31T22:00:00.931Z,16.5
2022-08-31T22:03:00.827Z,16.5
2022-08-31T22:06:00.610Z,16.5
2022-08-31T22:09:00.730Z,16.5
2022-08-31T22:12:00.614Z,16.5
2022-08-31T22:15:00.622Z,16.1
2022-08-31T22:18:59.526Z,16.1
2022-08-31T22:21:00.622Z,16.1
2022-08-31T22:24:00.621Z,16.1
2022-08-31T22:27:00.590Z,16.1
2022-08-31T22:30:00.632Z,16.1
2022-08-31T22:33:00.618Z,16.1
2022-08-31T22:36:00.646Z,16.1
2022-08-31T22:39:00.587Z,16.1
2022-08-31T22:42:00.648Z,15.8
2022-08-31T22:45:00.604Z,15.8
2022-08-31T22:48:00.739Z,15.8
2022-08-31T22:51:00.609Z,15.8
2022-08-31T22:54:00.644Z,15.8
2022-08-31T22:57:00.575Z,15.6
2022-08-31T23:00:00.771Z,15.6
2022-08-31T23:03:00.648Z,15.6
2022-08-31T23:06:00.614Z,15.6
2022-08-31T23:09:00.604Z,15.6
2022-08-31T23:12:00.632Z,15.6
2022-08-31T23:15:00.725Z,15.6
2022-08-31T23:18:00.634Z,15.6
2022-08-31T23:21:00.650Z,15.6
2022-08-31T23:24:00.597Z,15.6
2022-08-31T23:27:04.903Z,15.6
2022-08-31T23:30:00.641Z,15.4
2022-08-31T23:33:00.620Z,15.4
2022-08-31T23:36:00.633Z,15.4
2022-08-31T23:39:00.715Z,15.3
2022-08-31T23:42:00.623Z,15.3
2022-08-31T23:45:00.622Z,15.3
2022-08-31T23:48:00.857Z,15.3
2022-08-31T23:51:00.614Z,15.3
2022-08-31T23:54:00.623Z,15.3
2022-08-31T23:57:00.603Z,15.3
